createdAt,value
2022-10-18T00:01:09.600Z,4.35
2022-10-18T00:03:38.624Z,3.70
2022-10-18T00:06:09.091Z,3.78
2022-10-18T00:08:38.419Z,3.60
2022-10-18T00:11:07.541Z,3.90
2022-10-18T00:13:37.640Z,4.40
2022-10-18T00:16:10.896Z,3.90
2022-10-18T00:18:39.084Z,4.03
2022-10-18T00:21:09.594Z,4.30
2022-10-18T00:23:38.459Z,4.30
2022-10-18T00:26:09.292Z,4.03
2022-10-18T00:28:39.751Z,3.90
2022-10-18T00:31:12.537Z,4.00
2022-10-18T00:33:41.224Z,4.57
2022-10-18T00:36:09.461Z,3.88
2022-10-18T00:38:38.080Z,4.30
2022-10-18T00:41:08.446Z,4.57
2022-10-18T00:43:53.856Z,5.00
2022-10-18T00:46:22.132Z,4.90
2022-10-18T00:48:50.862Z,5.30
2022-10-18T00:51:21.724Z,4.88
2022-10-18T00:53:50.448Z,5.30
2022-10-18T00:56:19.127Z,4.90
2022-10-18T00:58:48.750Z,5.20
2022-10-18T01:01:18.655Z,5.25
2022-10-18T01:03:47.223Z,5.55
2022-10-18T01:06:15.418Z,5.10
2022-10-18T01:08:52.028Z,5.30
2022-10-18T01:11:35.582Z,5.40
2022-10-18T01:14:16.242Z,5.35
2022-10-18T01:16:50.466Z,5.30
2022-10-18T01:19:48.417Z,4.80
2022-10-18T01:22:23.384Z,5.07
2022-10-18T01:27:52.035Z,4.90
2022-10-18T01:30:44.494Z,4.97
2022-10-18T01:33:21.424Z,4.43
2022-10-18T01:35:54.529Z,5.00
2022-10-18T01:38:24.919Z,4.57
2022-10-18T01:40:54.396Z,4.50
2022-10-18T01:43:24.354Z,4.60
2022-10-18T01:45:55.872Z,4.90
2022-10-18T01:48:24.854Z,4.45
2022-10-18T01:50:54.087Z,4.10
2022-10-18T01:53:24.412Z,4.68
2022-10-18T01:56:02.843Z,4.40
2022-10-18T01:58:39.525Z,4.40
2022-10-18T02:01:14.799Z,5.00
2022-10-18T02:03:48.813Z,4.90
2022-10-18T02:06:22.782Z,4.65
2022-10-18T02:08:55.249Z,4.80
2022-10-18T02:11:23.652Z,5.10
2022-10-18T02:13:55.088Z,5.18
2022-10-18T02:16:29.557Z,4.63
2022-10-18T02:19:01.806Z,5.35
2022-10-18T02:21:31.812Z,4.85
2022-10-18T02:24:02.155Z,5.40
2022-10-18T02:26:31.117Z,4.67
2022-10-18T02:28:59.307Z,4.90
2022-10-18T02:31:34.282Z,4.95
2022-10-18T02:34:07.622Z,4.50
2022-10-18T02:36:39.682Z,4.60
2022-10-18T02:39:14.341Z,3.80
2022-10-18T02:41:43.349Z,5.10
2022-10-18T02:44:12.052Z,4.60
2022-10-18T02:46:42.221Z,4.70
2022-10-18T02:49:10.400Z,4.22
2022-10-18T02:51:38.541Z,4.60
2022-10-18T02:54:08.381Z,4.70
2022-10-18T02:56:37.251Z,4.95
2022-10-18T02:59:07.370Z,4.77
2022-10-18T03:01:36.259Z,4.82
2022-10-18T03:04:06.570Z,4.38
2022-10-18T03:06:35.030Z,5.45
2022-10-18T03:09:04.596Z,3.92
2022-10-18T03:11:33.064Z,4.70
2022-10-18T03:14:01.228Z,4.88
2022-10-18T03:16:29.646Z,4.70
2022-10-18T03:18:57.784Z,4.50
2022-10-18T03:21:27.375Z,4.40
2022-10-18T03:23:56.115Z,3.90
2022-10-18T03:26:24.263Z,4.50
2022-10-18T03:28:52.491Z,5.72
2022-10-18T03:31:20.879Z,4.80
2022-10-18T03:33:49.492Z,5.00
2022-10-18T03:36:17.953Z,4.43
2022-10-18T03:38:47.542Z,4.70
2022-10-18T03:41:15.761Z,4.63
2022-10-18T03:43:43.957Z,4.90
2022-10-18T03:46:12.105Z,4.68
2022-10-18T03:48:40.305Z,4.20
2022-10-18T03:51:08.517Z,4.75
2022-10-18T03:53:36.724Z,4.53
2022-10-18T03:56:06.802Z,4.68
2022-10-18T03:58:34.972Z,5.07
2022-10-18T04:01:03.209Z,4.63
2022-10-18T04:03:31.462Z,4.30
2022-10-18T04:06:00.841Z,4.90
2022-10-18T04:08:28.990Z,4.53
2022-10-18T04:10:57.178Z,4.40
2022-10-18T04:13:26.773Z,4.57
2022-10-18T04:15:54.950Z,4.20
2022-10-18T04:18:23.184Z,5.07
2022-10-18T04:20:51.397Z,4.63
2022-10-18T04:23:19.857Z,4.37
2022-10-18T04:25:48.027Z,4.23
2022-10-18T04:28:16.215Z,4.85
2022-10-18T04:30:49.966Z,4.15
2022-10-18T04:33:18.236Z,4.60
2022-10-18T04:35:46.989Z,3.75
2022-10-18T04:38:15.391Z,4.15
2022-10-18T04:40:43.543Z,5.22
2022-10-18T04:43:11.727Z,4.60
2022-10-18T04:45:39.880Z,4.72
2022-10-18T04:48:09.713Z,4.68
2022-10-18T04:50:37.877Z,4.47
2022-10-18T04:53:15.624Z,4.40
2022-10-18T04:55:46.205Z,5.00
2022-10-18T04:58:14.395Z,4.57
2022-10-18T05:00:43.489Z,5.13
2022-10-18T05:03:14.373Z,5.20
2022-10-18T05:06:00.950Z,4.95
2022-10-18T05:08:30.344Z,5.00
2022-10-18T05:10:58.584Z,5.55
2022-10-18T05:13:26.946Z,5.75
2022-10-18T05:15:55.226Z,6.10
2022-10-18T05:18:25.077Z,5.13
2022-10-18T05:20:53.324Z,5.53
2022-10-18T05:23:21.503Z,5.40
2022-10-18T05:25:49.729Z,5.43
2022-10-18T05:31:08.102Z,5.60
2022-10-18T05:33:37.801Z,5.68
2022-10-18T05:36:06.301Z,6.32
2022-10-18T05:41:07.725Z,7.32
2022-10-18T05:43:36.112Z,7.15
2022-10-18T05:46:06.505Z,6.15
2022-10-18T05:48:38.815Z,6.22
2022-10-18T05:51:08.017Z,6.55
2022-10-18T05:53:37.447Z,6.75
2022-10-18T05:56:07.029Z,5.90
2022-10-18T05:58:35.688Z,6.25
2022-10-18T06:01:05.719Z,6.40
2022-10-18T06:03:34.149Z,6.05
2022-10-18T06:06:05.005Z,6.45
2022-10-18T06:08:33.718Z,5.85
2022-10-18T06:11:07.146Z,5.88
2022-10-18T06:13:35.410Z,6.40
2022-10-18T06:16:03.526Z,7.10
2022-10-18T06:18:31.667Z,6.28
2022-10-18T06:21:00.698Z,6.00
2022-10-18T06:23:30.506Z,7.13
2022-10-18T06:26:00.455Z,5.90
2022-10-18T06:28:29.649Z,6.03
2022-10-18T06:30:58.430Z,6.40
2022-10-18T06:33:26.915Z,6.90
2022-10-18T06:35:59.689Z,6.30
2022-10-18T06:38:30.013Z,6.30
2022-10-18T06:40:59.109Z,6.60
2022-10-18T06:43:27.405Z,7.28
2022-10-18T06:45:56.019Z,7.05
2022-10-18T06:48:24.494Z,6.68
2022-10-18T06:50:57.306Z,7.80
2022-10-18T06:53:26.092Z,7.80
2022-10-18T06:56:00.912Z,8.38
2022-10-18T06:58:29.413Z,7.50
2022-10-18T07:00:57.777Z,7.20
2022-10-18T07:03:26.977Z,7.50
2022-10-18T07:05:55.177Z,8.38
2022-10-18T07:08:23.330Z,9.00
2022-10-18T07:10:56.087Z,8.30
2022-10-18T07:13:32.362Z,8.48
2022-10-18T07:16:03.043Z,8.65
2022-10-18T07:18:31.465Z,8.20
2022-10-18T07:21:02.743Z,9.60
2022-10-18T07:23:30.968Z,9.68
2022-10-18T07:26:00.921Z,8.93
2022-10-18T07:28:29.678Z,9.13
2022-10-18T07:31:01.207Z,8.90
2022-10-18T07:33:32.012Z,9.20
2022-10-18T07:36:02.464Z,9.98
2022-10-18T07:38:30.707Z,9.27
2022-10-18T07:41:01.291Z,11.27
2022-10-18T07:43:29.747Z,10.02
2022-10-18T07:45:59.920Z,9.80
2022-10-18T07:48:28.820Z,9.23
2022-10-18T07:50:59.808Z,8.90
2022-10-18T07:53:28.654Z,11.02
2022-10-18T07:56:02.448Z,10.52
2022-10-18T07:58:33.605Z,12.23
2022-10-18T08:01:04.430Z,13.50
2022-10-18T08:03:33.073Z,13.23
2022-10-18T08:06:01.533Z,13.75
2022-10-18T08:08:30.547Z,13.20
2022-10-18T08:11:05.632Z,12.83
2022-10-18T08:13:34.006Z,13.48
2022-10-18T08:16:03.084Z,14.40
2022-10-18T08:18:31.696Z,13.90
2022-10-18T08:21:01.916Z,14.30
2022-10-18T08:23:30.122Z,15.68
2022-10-18T08:25:58.338Z,15.90
2022-10-18T08:28:28.065Z,15.18
2022-10-18T08:30:56.279Z,15.80
2022-10-18T08:33:24.732Z,15.02
2022-10-18T08:35:56.507Z,14.63
2022-10-18T08:38:25.242Z,16.25
2022-10-18T08:40:53.681Z,16.02
2022-10-18T08:43:32.888Z,15.60
2022-10-18T08:46:01.644Z,16.80
2022-10-18T08:48:36.775Z,16.40
2022-10-18T08:51:07.909Z,15.70
2022-10-18T08:53:45.962Z,16.38
2022-10-18T08:56:15.545Z,15.57
2022-10-18T08:58:45.640Z,15.47
2022-10-18T09:01:26.333Z,16.40
2022-10-18T09:04:15.388Z,15.50
2022-10-18T09:06:50.417Z,15.93
2022-10-18T09:09:29.315Z,15.70
2022-10-18T09:12:09.996Z,15.35
2022-10-18T09:15:02.354Z,15.02
2022-10-18T09:17:40.071Z,16.02
2022-10-18T09:20:21.905Z,15.13
2022-10-18T09:22:56.549Z,15.52
2022-10-18T09:25:26.831Z,15.65
2022-10-18T09:27:58.225Z,15.40
2022-10-18T09:30:38.146Z,13.77
2022-10-18T09:33:19.557Z,14.80
2022-10-18T09:35:53.561Z,14.35
2022-10-18T09:41:03.411Z,15.23
2022-10-18T09:43:46.989Z,15.30
2022-10-18T09:46:18.207Z,15.13
2022-10-18T09:48:50.338Z,14.65
2022-10-18T09:51:22.776Z,15.60
2022-10-18T09:54:16.401Z,15.15
2022-10-18T09:56:49.113Z,15.20
2022-10-18T09:59:38.621Z,14.25
2022-10-18T10:02:13.197Z,14.50
2022-10-18T10:04:41.530Z,14.35
2022-10-18T10:07:13.178Z,14.40
2022-10-18T10:09:46.256Z,13.18
2022-10-18T10:12:31.137Z,13.75
2022-10-18T10:15:10.674Z,14.47
2022-10-18T10:17:40.186Z,13.63
2022-10-18T10:20:19.808Z,13.52
2022-10-18T10:22:49.017Z,13.30
2022-10-18T10:25:29.628Z,12.80
2022-10-18T10:28:04.271Z,14.45
2022-10-18T10:30:36.272Z,14.60
2022-10-18T10:33:07.309Z,13.63
2022-10-18T10:35:53.878Z,15.10
2022-10-18T10:38:26.512Z,13.30
2022-10-18T10:40:55.964Z,13.73
2022-10-18T10:43:42.773Z,12.43
2022-10-18T10:46:13.207Z,11.82
2022-10-18T10:48:50.610Z,11.88
2022-10-18T10:51:29.921Z,12.52
2022-10-18T10:54:03.312Z,11.50
2022-10-18T10:56:33.841Z,12.20
2022-10-18T10:59:11.244Z,12.02
2022-10-18T11:01:39.472Z,11.07
2022-10-18T11:04:28.186Z,11.47
2022-10-18T11:07:05.682Z,10.80
2022-10-18T11:09:43.602Z,10.60
2022-10-18T11:12:26.937Z,9.40
2022-10-18T11:15:10.146Z,9.68
2022-10-18T11:17:45.097Z,9.82
2022-10-18T11:20:22.102Z,9.00
2022-10-18T11:23:01.167Z,9.65
2022-10-18T11:25:49.197Z,9.32
2022-10-18T11:28:24.890Z,10.73
2022-10-18T11:31:09.221Z,9.52
2022-10-18T11:34:08.350Z,13.10
2022-10-18T11:37:08.927Z,12.00
2022-10-18T11:39:47.727Z,9.77
2022-10-18T11:42:25.852Z,8.43
2022-10-18T11:45:05.113Z,7.10
2022-10-18T11:47:40.519Z,6.40
2022-10-18T11:50:19.227Z,5.60
2022-10-18T11:52:57.468Z,4.97
2022-10-18T11:55:37.976Z,5.32
2022-10-18T11:58:25.349Z,4.60
2022-10-18T12:00:58.124Z,5.40
2022-10-18T12:03:38.643Z,5.30
2022-10-18T12:06:12.453Z,5.10
2022-10-18T12:08:45.543Z,5.72
2022-10-18T12:11:18.812Z,5.67
2022-10-18T12:13:50.543Z,4.30
2022-10-18T12:16:38.994Z,4.88
2022-10-18T12:19:23.432Z,4.80
2022-10-18T12:21:56.606Z,5.43
2022-10-18T12:24:28.913Z,5.25
2022-10-18T12:27:01.838Z,4.20
2022-10-18T12:29:38.173Z,4.03
2022-10-18T12:32:11.993Z,5.83
2022-10-18T12:34:44.724Z,9.68
2022-10-18T12:37:26.498Z,4.45
2022-10-18T12:40:18.844Z,9.87
2022-10-18T12:42:51.368Z,4.13
2022-10-18T12:45:30.248Z,5.10
2022-10-18T12:48:01.604Z,3.97
2022-10-18T12:50:34.786Z,4.80
2022-10-18T12:53:22.874Z,3.90
2022-10-18T12:55:53.820Z,4.00
2022-10-18T12:58:31.277Z,4.10
2022-10-18T13:01:02.314Z,3.83
2022-10-18T13:03:57.003Z,3.60
2022-10-18T13:06:25.713Z,3.50
2022-10-18T13:09:20.154Z,4.80
2022-10-18T13:11:51.046Z,3.70
2022-10-18T13:15:05.739Z,4.30
2022-10-18T13:17:47.256Z,4.10
2022-10-18T13:20:27.237Z,4.43
2022-10-18T13:23:11.304Z,3.65
2022-10-18T13:25:52.551Z,3.90
2022-10-18T13:28:31.292Z,3.90
2022-10-18T13:31:05.225Z,4.40
2022-10-18T13:33:36.020Z,3.97
2022-10-18T13:36:07.667Z,3.33
2022-10-18T13:38:42.256Z,4.30
2022-10-18T13:41:13.950Z,3.80
2022-10-18T13:44:28.374Z,3.25
2022-10-18T13:47:38.962Z,2.80
2022-10-18T13:50:33.995Z,2.00
2022-10-18T13:53:38.107Z,1.55
2022-10-18T13:56:26.367Z,1.75
2022-10-18T13:59:16.505Z,2.08
2022-10-18T14:01:59.178Z,1.80
2022-10-18T14:04:52.733Z,1.80
2022-10-18T14:07:21.768Z,1.80
2022-10-18T14:09:56.103Z,1.80
2022-10-18T14:12:31.941Z,1.70
2022-10-18T14:15:08.645Z,1.50
2022-10-18T14:17:42.804Z,1.80
2022-10-18T14:20:29.337Z,1.70
2022-10-18T14:23:05.145Z,1.45
2022-10-18T14:25:36.687Z,1.70
2022-10-18T14:28:10.104Z,1.20
2022-10-18T14:30:56.001Z,1.40
2022-10-18T14:33:33.703Z,1.73
2022-10-18T14:36:08.143Z,1.50
2022-10-18T14:38:45.592Z,1.90
2022-10-18T14:41:17.200Z,1.45
2022-10-18T14:43:46.636Z,1.60
2022-10-18T14:46:22.069Z,1.20
2022-10-18T14:48:56.170Z,1.30
2022-10-18T14:51:24.731Z,1.10
2022-10-18T14:53:53.744Z,1.00
2022-10-18T14:56:26.524Z,1.30
2022-10-18T14:58:56.743Z,1.08
2022-10-18T15:01:28.661Z,1.05
2022-10-18T15:03:59.818Z,1.17
2022-10-18T15:06:28.655Z,1.40
2022-10-18T15:08:58.828Z,1.20
2022-10-18T15:11:28.303Z,1.60
2022-10-18T15:13:58.965Z,1.00
2022-10-18T15:16:30.928Z,1.50
2022-10-18T15:19:06.942Z,1.50
2022-10-18T15:21:36.253Z,1.42
2022-10-18T15:24:33.036Z,1.20
2022-10-18T15:27:15.170Z,1.17
2022-10-18T15:29:44.364Z,1.10
2022-10-18T15:32:20.575Z,1.20
2022-10-18T15:34:50.272Z,1.20
2022-10-18T15:37:28.884Z,1.02
2022-10-18T15:40:19.637Z,0.90
2022-10-18T15:42:48.862Z,1.00
2022-10-18T15:45:32.525Z,1.00
2022-10-18T15:48:03.735Z,1.10
2022-10-18T15:50:44.467Z,1.00
2022-10-18T15:53:42.954Z,1.20
2022-10-18T15:56:31.481Z,1.30
2022-10-18T15:59:04.017Z,1.20
2022-10-18T16:01:39.020Z,1.35
2022-10-18T16:04:13.692Z,1.33
2022-10-18T16:06:43.235Z,0.90
2022-10-18T16:09:16.585Z,1.30
2022-10-18T16:11:44.915Z,1.20
2022-10-18T16:14:13.169Z,1.37
2022-10-18T16:16:42.101Z,1.20
2022-10-18T16:19:14.247Z,1.60
2022-10-18T16:21:43.912Z,1.20
2022-10-18T16:24:12.405Z,1.10
2022-10-18T16:26:40.481Z,1.23
2022-10-18T16:29:13.188Z,1.20
2022-10-18T16:31:41.595Z,1.98
2022-10-18T16:34:11.212Z,5.70
2022-10-18T16:36:39.769Z,14.93
2022-10-18T16:39:16.236Z,22.27
2022-10-18T16:41:44.743Z,21.00
2022-10-18T16:44:13.276Z,16.45
2022-10-18T16:46:41.958Z,11.65
2022-10-18T16:51:54.967Z,8.10
2022-10-18T16:54:24.738Z,6.72
2022-10-18T16:56:52.944Z,6.53
2022-10-18T16:59:25.261Z,6.00
2022-10-18T17:01:53.524Z,5.45
2022-10-18T17:04:21.840Z,4.50
2022-10-18T17:06:50.084Z,4.05
2022-10-18T17:09:18.205Z,4.13
2022-10-18T17:11:47.895Z,3.70
2022-10-18T17:14:16.030Z,3.42
2022-10-18T17:16:46.645Z,3.28
2022-10-18T17:19:18.228Z,3.80
2022-10-18T17:21:46.337Z,3.33
2022-10-18T17:24:14.502Z,3.30
2022-10-18T17:26:42.785Z,3.50
2022-10-18T17:29:12.410Z,3.08
2022-10-18T17:31:40.641Z,2.67
2022-10-18T17:34:09.023Z,3.10
2022-10-18T17:36:37.212Z,2.63
2022-10-18T17:39:06.235Z,2.53
2022-10-18T17:41:34.424Z,3.00
2022-10-18T17:44:03.995Z,3.47
2022-10-18T17:46:33.639Z,3.50
2022-10-18T17:49:01.769Z,2.97
2022-10-18T17:51:30.102Z,2.90
2022-10-18T17:53:58.237Z,3.00
2022-10-18T17:56:31.075Z,2.60
2022-10-18T17:58:59.256Z,2.85
2022-10-18T18:01:27.827Z,2.90
2022-10-18T18:03:59.690Z,3.30
2022-10-18T18:06:31.248Z,3.53
2022-10-18T18:09:00.275Z,5.97
2022-10-18T18:11:29.358Z,7.40
2022-10-18T18:13:57.872Z,8.50
2022-10-18T18:16:28.384Z,9.07
2022-10-18T18:18:59.280Z,8.65
2022-10-18T18:21:28.054Z,9.40
2022-10-18T18:23:56.500Z,10.05
2022-10-18T18:26:25.228Z,9.20
2022-10-18T18:28:54.036Z,9.60
2022-10-18T18:31:24.536Z,9.87
2022-10-18T18:33:53.387Z,9.50
2022-10-18T18:36:23.772Z,9.35
2022-10-18T18:38:56.889Z,9.85
2022-10-18T18:41:27.207Z,8.90
2022-10-18T18:43:57.648Z,9.30
2022-10-18T18:46:27.075Z,9.45
2022-10-18T18:48:55.736Z,9.85
2022-10-18T18:51:25.587Z,9.05
2022-10-18T18:53:54.259Z,7.57
2022-10-18T18:56:24.334Z,7.38
2022-10-18T18:58:53.616Z,5.80
2022-10-18T19:01:23.291Z,5.40
2022-10-18T19:03:53.065Z,5.50
2022-10-18T19:06:24.836Z,5.40
2022-10-18T19:09:00.276Z,5.80
2022-10-18T19:11:33.307Z,5.43
2022-10-18T19:14:01.639Z,5.05
2022-10-18T19:16:31.571Z,5.90
2022-10-18T19:19:01.483Z,6.63
2022-10-18T19:21:33.483Z,5.10
2022-10-18T19:24:02.085Z,5.78
2022-10-18T19:26:33.549Z,4.35
2022-10-18T19:29:04.908Z,4.22
2022-10-18T19:31:34.841Z,3.50
2022-10-18T19:34:03.829Z,3.45
2022-10-18T19:36:33.848Z,4.13
2022-10-18T19:39:02.508Z,3.30
2022-10-18T19:41:30.788Z,3.50
2022-10-18T19:43:59.147Z,3.53
2022-10-18T19:46:27.703Z,3.47
2022-10-18T19:48:56.068Z,3.20
2022-10-18T19:51:27.923Z,3.90
2022-10-18T19:53:58.914Z,3.10
2022-10-18T19:56:28.881Z,3.10
2022-10-18T19:58:57.532Z,3.15
2022-10-18T20:01:26.676Z,3.15
2022-10-18T20:03:55.804Z,3.17
2022-10-18T20:06:24.279Z,3.28
2022-10-18T20:08:52.756Z,3.50
2022-10-18T20:11:24.207Z,3.53
2022-10-18T20:13:53.127Z,3.60
2022-10-18T20:16:27.674Z,3.42
2022-10-18T20:18:57.575Z,3.78
2022-10-18T20:21:26.102Z,3.15
2022-10-18T20:23:54.301Z,3.22
2022-10-18T20:26:25.452Z,3.17
2022-10-18T20:28:56.813Z,3.50
2022-10-18T20:31:26.864Z,3.05
2022-10-18T20:33:56.958Z,3.50
2022-10-18T20:36:25.566Z,3.00
2022-10-18T20:38:54.871Z,2.88
2022-10-18T20:41:26.923Z,2.85
2022-10-18T20:43:56.859Z,3.22
2022-10-18T20:46:25.654Z,3.50
2022-10-18T20:48:55.149Z,3.30
2022-10-18T20:51:24.045Z,3.50
2022-10-18T20:53:53.342Z,3.50
2022-10-18T20:56:23.243Z,3.10
2022-10-18T20:58:55.119Z,3.60
2022-10-18T21:01:25.537Z,3.65
2022-10-18T21:03:55.894Z,3.50
2022-10-18T21:06:25.645Z,3.15
2022-10-18T21:08:55.545Z,3.83
2022-10-18T21:11:24.622Z,3.00
2022-10-18T21:13:55.850Z,3.70
2022-10-18T21:16:24.152Z,3.55
2022-10-18T21:18:52.393Z,3.22
2022-10-18T21:21:23.251Z,3.50
2022-10-18T21:23:52.100Z,3.67
2022-10-18T21:26:22.527Z,3.22
2022-10-18T21:28:51.645Z,3.33
2022-10-18T21:31:23.764Z,3.50
2022-10-18T21:33:55.157Z,3.78
2022-10-18T21:36:24.217Z,3.40
2022-10-18T21:38:52.921Z,3.88
2022-10-18T21:41:22.876Z,3.00
2022-10-18T21:43:52.265Z,4.53
2022-10-18T21:46:23.447Z,3.60
2022-10-18T21:48:53.180Z,3.60
2022-10-18T21:51:24.366Z,3.88
2022-10-18T21:53:54.216Z,3.88
2022-10-18T21:56:24.164Z,3.87
2022-10-18T21:58:52.374Z,3.67
2022-10-18T22:01:23.416Z,3.80
2022-10-18T22:03:54.318Z,3.47
2022-10-18T22:06:26.774Z,3.60
2022-10-18T22:08:56.095Z,3.50
2022-10-18T22:11:26.969Z,3.65
2022-10-18T22:13:56.027Z,3.40
2022-10-18T22:16:26.047Z,4.13
2022-10-18T22:18:57.921Z,3.50
2022-10-18T22:21:26.527Z,3.00
2022-10-18T22:23:57.128Z,3.80
2022-10-18T22:26:27.785Z,3.55
2022-10-18T22:28:57.774Z,3.58
2022-10-18T22:31:30.055Z,3.43
2022-10-18T22:34:00.380Z,3.00
2022-10-18T22:36:28.872Z,3.60
2022-10-18T22:38:57.479Z,3.42
2022-10-18T22:41:25.947Z,3.83
2022-10-18T22:43:57.305Z,3.28
2022-10-18T22:46:29.569Z,4.10
2022-10-18T22:48:57.821Z,3.30
2022-10-18T22:51:26.167Z,3.10
2022-10-18T22:53:54.369Z,3.80
2022-10-18T22:56:24.079Z,3.13
2022-10-18T22:58:52.867Z,3.20
2022-10-18T23:01:23.397Z,3.20
2022-10-18T23:03:55.433Z,3.45
2022-10-18T23:06:25.969Z,3.25
2022-10-18T23:08:55.600Z,2.97
2022-10-18T23:11:24.649Z,3.25
2022-10-18T23:13:53.162Z,3.00
2022-10-18T23:16:21.593Z,3.10
2022-10-18T23:18:56.014Z,3.00
2022-10-18T23:21:25.668Z,3.08
2022-10-18T23:23:54.850Z,3.25
2022-10-18T23:26:25.538Z,2.72
2022-10-18T23:28:54.462Z,3.55
2022-10-18T23:31:24.591Z,3.40
2022-10-18T23:33:54.443Z,3.10
2022-10-18T23:36:26.342Z,3.67
2022-10-18T23:38:54.915Z,3.30
2022-10-18T23:41:23.725Z,3.60
2022-10-18T23:43:52.500Z,3.30
2022-10-18T23:46:21.077Z,3.20
2022-10-18T23:48:49.719Z,3.33
2022-10-18T23:51:18.584Z,3.20
2022-10-18T23:53:48.598Z,3.30
2022-10-18T23:56:17.976Z,3.20
2022-10-18T23:58:47.153Z,2.80
